sensor_id;sensor_type;location;lat;lon;timestamp;pressure;altitude;pressure_sealevel;temperature;humidity
56241;BME280;42155;53.096;23.226;2023-07-29T00:01:51;99001.72;;;17.74;88.33
56241;BME280;42155;53.096;23.226;2023-07-29T00:03:51;99018.72;;;17.81;88.38
56241;BME280;42155;53.096;23.226;2023-07-29T00:05:51;99019.75;;;17.80;88.19
56241;BME280;42155;53.096;23.226;2023-07-29T00:07:52;99029.47;;;17.81;88.30
56241;BME280;42155;53.096;23.226;2023-07-29T00:09:52;99033.44;;;17.86;88.38
56241;BME280;42155;53.096;23.226;2023-07-29T00:11:52;99048.50;;;17.87;88.16
56241;BME280;42155;53.096;23.226;2023-07-29T00:13:53;99031.94;;;17.83;88.05
56241;BME280;42155;53.096;23.226;2023-07-29T00:15:54;99027.16;;;17.78;88.30
56241;BME280;42155;53.096;23.226;2023-07-29T00:17:55;99031.91;;;17.76;88.30
56241;BME280;42155;53.096;23.226;2023-07-29T00:19:55;99030.25;;;17.75;88.49
56241;BME280;42155;53.096;23.226;2023-07-29T00:21:55;99035.31;;;17.70;88.51
56241;BME280;42155;53.096;23.226;2023-07-29T00:23:55;99034.53;;;17.55;88.50
56241;BME280;42155;53.096;23.226;2023-07-29T00:25:56;99041.69;;;17.48;88.67
56241;BME280;42155;53.096;23.226;2023-07-29T00:27:57;99037.38;;;17.32;88.98
56241;BME280;42155;53.096;23.226;2023-07-29T00:29:57;99043.09;;;17.44;88.79
56241;BME280;42155;53.096;23.226;2023-07-29T00:31:57;99043.00;;;17.37;88.76
56241;BME280;42155;53.096;23.226;2023-07-29T00:33:57;99055.47;;;17.45;88.72
56241;BME280;42155;53.096;23.226;2023-07-29T00:35:58;99060.38;;;17.41;88.84
56241;BME280;42155;53.096;23.226;2023-07-29T00:37:58;99053.09;;;17.35;89.17
56241;BME280;42155;53.096;23.226;2023-07-29T00:39:58;99056.16;;;17.32;89.11
56241;BME280;42155;53.096;23.226;2023-07-29T00:41:59;99059.03;;;17.30;89.39
56241;BME280;42155;53.096;23.226;2023-07-29T00:43:59;99060.31;;;17.35;89.32
56241;BME280;42155;53.096;23.226;2023-07-29T00:46:00;99031.03;;;17.18;89.05
56241;BME280;42155;53.096;23.226;2023-07-29T00:48:01;99068.28;;;17.43;88.90
56241;BME280;42155;53.096;23.226;2023-07-29T00:50:02;99062.69;;;17.44;88.37
56241;BME280;42155;53.096;23.226;2023-07-29T00:52:03;99069.94;;;17.44;88.33
56241;BME280;42155;53.096;23.226;2023-07-29T00:54:03;99067.25;;;17.44;88.23
56241;BME280;42155;53.096;23.226;2023-07-29T00:56:04;99064.56;;;17.44;88.14
56241;BME280;42155;53.096;23.226;2023-07-29T00:58:04;99073.22;;;17.46;88.39
56241;BME280;42155;53.096;23.226;2023-07-29T01:00:05;99043.53;;;17.26;88.13
56241;BME280;42155;53.096;23.226;2023-07-29T01:02:06;99073.63;;;17.43;87.94
56241;BME280;42155;53.096;23.226;2023-07-29T01:04:06;99076.78;;;17.31;87.67
56241;BME280;42155;53.096;23.226;2023-07-29T01:06:23;99078.06;;;17.36;87.44
56241;BME280;42155;53.096;23.226;2023-07-29T01:13:18;99084.03;;;17.16;87.54
56241;BME280;42155;53.096;23.226;2023-07-29T01:18:31;99090.72;;;17.05;87.07
56241;BME280;42155;53.096;23.226;2023-07-29T01:20:37;99087.28;;;16.97;87.04
56241;BME280;42155;53.096;23.226;2023-07-29T01:22:39;99102.72;;;16.95;87.22
56241;BME280;42155;53.096;23.226;2023-07-29T01:24:39;99102.63;;;16.88;87.00
56241;BME280;42155;53.096;23.226;2023-07-29T01:26:40;99097.16;;;16.82;87.10
56241;BME280;42155;53.096;23.226;2023-07-29T01:28:40;99056.66;;;16.47;86.67
56241;BME280;42155;53.096;23.226;2023-07-29T01:30:42;99075.34;;;16.55;86.78
56241;BME280;42155;53.096;23.226;2023-07-29T01:35:40;99105.91;;;16.61;86.70
56241;BME280;42155;53.096;23.226;2023-07-29T01:37:46;99106.19;;;16.51;86.88
56241;BME280;42155;53.096;23.226;2023-07-29T01:39:49;99101.19;;;16.48;87.05
56241;BME280;42155;53.096;23.226;2023-07-29T01:41:50;99109.56;;;16.45;87.41
56241;BME280;42155;53.096;23.226;2023-07-29T01:43:52;99103.56;;;16.43;87.32
56241;BME280;42155;53.096;23.226;2023-07-29T01:45:53;99103.00;;;16.33;87.19
56241;BME280;42155;53.096;23.226;2023-07-29T01:47:53;99120.19;;;16.38;87.43
56241;BME280;42155;53.096;23.226;2023-07-29T01:49:54;99116.41;;;16.33;87.72
56241;BME280;42155;53.096;23.226;2023-07-29T01:51:54;99128.47;;;16.28;87.72
56241;BME280;42155;53.096;23.226;2023-07-29T01:53:54;99125.13;;;16.26;87.91
56241;BME280;42155;53.096;23.226;2023-07-29T01:55:55;99123.47;;;16.25;87.97
56241;BME280;42155;53.096;23.226;2023-07-29T01:57:55;99122.63;;;16.25;87.66
56241;BME280;42155;53.096;23.226;2023-07-29T01:59:55;99128.00;;;16.25;87.66
56241;BME280;42155;53.096;23.226;2023-07-29T02:01:56;99128.53;;;16.20;87.87
56241;BME280;42155;53.096;23.226;2023-07-29T02:03:56;99144.41;;;16.22;87.80
56241;BME280;42155;53.096;23.226;2023-07-29T02:05:56;99144.88;;;16.25;88.02
56241;BME280;42155;53.096;23.226;2023-07-29T02:07:57;99143.22;;;16.24;88.00
56241;BME280;42155;53.096;23.226;2023-07-29T02:09:57;99105.41;;;16.04;88.06
56241;BME280;42155;53.096;23.226;2023-07-29T02:11:57;99125.63;;;16.07;88.33
56241;BME280;42155;53.096;23.226;2023-07-29T02:13:58;99129.63;;;16.11;88.43
56241;BME280;42155;53.096;23.226;2023-07-29T02:15:58;99163.34;;;16.20;88.55
56241;BME280;42155;53.096;23.226;2023-07-29T02:17:59;99152.63;;;16.20;88.83
56241;BME280;42155;53.096;23.226;2023-07-29T02:19:59;99157.63;;;16.23;89.07
56241;BME280;42155;53.096;23.226;2023-07-29T02:22:00;99120.31;;;15.99;88.95
56241;BME280;42155;53.096;23.226;2023-07-29T02:24:00;99146.19;;;16.29;88.64
56241;BME280;42155;53.096;23.226;2023-07-29T02:26:00;99148.88;;;16.29;88.44
56241;BME280;42155;53.096;23.226;2023-07-29T02:28:01;99159.59;;;16.29;88.31
56241;BME280;42155;53.096;23.226;2023-07-29T02:30:02;99153.59;;;16.27;88.50
56241;BME280;42155;53.096;23.226;2023-07-29T02:32:02;99162.25;;;16.29;88.37
56241;BME280;42155;53.096;23.226;2023-07-29T02:34:03;99166.16;;;16.27;88.42
56241;BME280;42155;53.096;23.226;2023-07-29T02:36:04;99157.97;;;16.20;88.60
56241;BME280;42155;53.096;23.226;2023-07-29T02:38:04;99172.88;;;16.23;88.68
56241;BME280;42155;53.096;23.226;2023-07-29T02:40:05;99175.25;;;16.18;88.88
56241;BME280;42155;53.096;23.226;2023-07-29T02:42:05;99171.31;;;16.28;88.63
56241;BME280;42155;53.096;23.226;2023-07-29T02:44:05;99174.72;;;16.22;88.65
56241;BME280;42155;53.096;23.226;2023-07-29T02:46:06;99181.44;;;16.18;88.89
56241;BME280;42155;53.096;23.226;2023-07-29T02:48:06;99186.66;;;16.12;88.75
56241;BME280;42155;53.096;23.226;2023-07-29T02:50:07;99181.19;;;16.05;88.73
56241;BME280;42155;53.096;23.226;2023-07-29T02:52:07;99184.88;;;16.04;88.81
56241;BME280;42155;53.096;23.226;2023-07-29T02:54:07;99142.25;;;15.71;88.57
56241;BME280;42155;53.096;23.226;2023-07-29T02:56:08;99190.81;;;15.91;88.83
56241;BME280;42155;53.096;23.226;2023-07-29T02:58:08;99203.66;;;15.96;89.16
56241;BME280;42155;53.096;23.226;2023-07-29T03:00:09;99202.47;;;15.98;89.25
56241;BME280;42155;53.096;23.226;2023-07-29T03:02:11;99204.59;;;16.03;89.08
56241;BME280;42155;53.096;23.226;2023-07-29T03:04:11;99205.56;;;16.10;88.68
56241;BME280;42155;53.096;23.226;2023-07-29T03:06:14;99193.06;;;16.02;88.53
56241;BME280;42155;53.096;23.226;2023-07-29T03:08:14;99214.69;;;16.24;88.32
56241;BME280;42155;53.096;23.226;2023-07-29T03:10:15;99211.81;;;16.25;88.33
56241;BME280;42155;53.096;23.226;2023-07-29T03:12:15;99215.63;;;16.31;88.08
56241;BME280;42155;53.096;23.226;2023-07-29T03:14:15;99226.53;;;16.29;88.28
56241;BME280;42155;53.096;23.226;2023-07-29T03:16:17;99220.34;;;16.29;88.34
56241;BME280;42155;53.096;23.226;2023-07-29T03:18:17;99216.78;;;16.37;87.99
56241;BME280;42155;53.096;23.226;2023-07-29T03:20:19;99213.72;;;16.40;88.15
56241;BME280;42155;53.096;23.226;2023-07-29T03:22:19;99221.75;;;16.40;87.70
56241;BME280;42155;53.096;23.226;2023-07-29T03:24:19;99217.06;;;16.42;87.91
56241;BME280;42155;53.096;23.226;2023-07-29T03:26:20;99217.72;;;16.44;87.92
56241;BME280;42155;53.096;23.226;2023-07-29T03:28:20;99215.31;;;16.49;87.67
56241;BME280;42155;53.096;23.226;2023-07-29T03:30:22;99218.69;;;16.51;87.53
56241;BME280;42155;53.096;23.226;2023-07-29T03:32:22;99198.31;;;16.42;87.39
56241;BME280;42155;53.096;23.226;2023-07-29T03:34:22;99220.34;;;16.52;87.32
56241;BME280;42155;53.096;23.226;2023-07-29T03:36:23;99218.28;;;16.54;86.72
56241;BME280;42155;53.096;23.226;2023-07-29T03:38:23;99222.66;;;16.55;86.82
56241;BME280;42155;53.096;23.226;2023-07-29T03:40:24;99213.31;;;16.51;86.78
56241;BME280;42155;53.096;23.226;2023-07-29T03:42:24;99228.38;;;16.52;86.95
56241;BME280;42155;53.096;23.226;2023-07-29T03:44:24;99212.06;;;16.39;86.82
56241;BME280;42155;53.096;23.226;2023-07-29T03:46:25;99241.75;;;16.52;87.03
56241;BME280;42155;53.096;23.226;2023-07-29T03:48:25;99230.84;;;16.53;87.00
56241;BME280;42155;53.096;23.226;2023-07-29T03:50:26;99229.38;;;16.51;86.46
56241;BME280;42155;53.096;23.226;2023-07-29T03:52:27;99234.75;;;16.51;86.70
56241;BME280;42155;53.096;23.226;2023-07-29T03:54:27;99240.94;;;16.51;86.86
56241;BME280;42155;53.096;23.226;2023-07-29T03:56:27;99234.59;;;16.44;86.51
56241;BME280;42155;53.096;23.226;2023-07-29T03:58:28;99257.34;;;16.48;86.63
56241;BME280;42155;53.096;23.226;2023-07-29T04:00:28;99256.22;;;16.43;86.56
56241;BME280;42155;53.096;23.226;2023-07-29T04:02:28;99235.53;;;16.37;86.57
56241;BME280;42155;53.096;23.226;2023-07-29T04:04:29;99256.03;;;16.44;86.56
56241;BME280;42155;53.096;23.226;2023-07-29T04:06:29;99231.53;;;16.33;86.30
56241;BME280;42155;53.096;23.226;2023-07-29T04:08:29;99222.97;;;16.14;86.08
56241;BME280;42155;53.096;23.226;2023-07-29T04:10:30;99252.28;;;16.53;86.57
56241;BME280;42155;53.096;23.226;2023-07-29T04:12:30;99262.06;;;16.46;86.04
56241;BME280;42155;53.096;23.226;2023-07-29T04:14:30;99240.22;;;16.35;85.94
56241;BME280;42155;53.096;23.226;2023-07-29T04:16:31;99264.38;;;16.49;86.08
56241;BME280;42155;53.096;23.226;2023-07-29T04:18:31;99258.84;;;16.51;85.70
56241;BME280;42155;53.096;23.226;2023-07-29T04:20:31;99256.53;;;16.48;85.45
56241;BME280;42155;53.096;23.226;2023-07-29T04:22:32;99254.13;;;16.53;85.53
56241;BME280;42155;53.096;23.226;2023-07-29T04:24:32;99255.94;;;16.61;85.11
56241;BME280;42155;53.096;23.226;2023-07-29T04:26:32;99258.97;;;16.58;84.81
56241;BME280;42155;53.096;23.226;2023-07-29T04:28:33;99239.03;;;16.60;85.54
56241;BME280;42155;53.096;23.226;2023-07-29T04:30:33;99254.63;;;16.57;85.43
56241;BME280;42155;53.096;23.226;2023-07-29T04:32:33;99262.59;;;16.65;85.22
56241;BME280;42155;53.096;23.226;2023-07-29T04:34:34;99253.53;;;16.66;84.71
56241;BME280;42155;53.096;23.226;2023-07-29T04:36:34;99256.41;;;16.64;84.28
56241;BME280;42155;53.096;23.226;2023-07-29T04:38:37;99241.94;;;16.50;84.69
56241;BME280;42155;53.096;23.226;2023-07-29T04:40:37;99270.75;;;16.71;84.41
56241;BME280;42155;53.096;23.226;2023-07-29T04:42:37;99284.13;;;16.71;84.84
56241;BME280;42155;53.096;23.226;2023-07-29T04:44:38;99280.47;;;16.72;84.68
56241;BME280;42155;53.096;23.226;2023-07-29T04:46:38;99279.63;;;16.72;84.52
56241;BME280;42155;53.096;23.226;2023-07-29T04:48:38;99285.81;;;16.72;84.42
56241;BME280;42155;53.096;23.226;2023-07-29T04:50:39;99289.84;;;16.68;84.17
56241;BME280;42155;53.096;23.226;2023-07-29T04:52:39;99279.59;;;16.49;84.12
56241;BME280;42155;53.096;23.226;2023-07-29T04:54:39;99302.00;;;16.56;84.14
56241;BME280;42155;53.096;23.226;2023-07-29T04:56:40;99287.34;;;16.44;84.29
56241;BME280;42155;53.096;23.226;2023-07-29T04:58:40;99298.66;;;16.54;84.43
56241;BME280;42155;53.096;23.226;2023-07-29T05:00:40;99288.66;;;16.48;84.22
56241;BME280;42155;53.096;23.226;2023-07-29T05:02:41;99295.00;;;16.55;84.53
56241;BME280;42155;53.096;23.226;2023-07-29T05:04:41;99298.31;;;16.57;84.45
56241;BME280;42155;53.096;23.226;2023-07-29T05:06:41;99296.13;;;16.61;84.42
56241;BME280;42155;53.096;23.226;2023-07-29T05:08:42;99297.13;;;16.60;84.35
56241;BME280;42155;53.096;23.226;2023-07-29T05:10:42;99299.28;;;16.64;84.42
56241;BME280;42155;53.096;23.226;2023-07-29T05:12:42;99305.28;;;16.66;84.24
56241;BME280;42155;53.096;23.226;2023-07-29T05:14:43;99309.88;;;16.80;84.21
56241;BME280;42155;53.096;23.226;2023-07-29T05:16:43;99307.63;;;16.92;84.03
56241;BME280;42155;53.096;23.226;2023-07-29T05:18:44;99286.63;;;16.96;83.97
56241;BME280;42155;53.096;23.226;2023-07-29T05:20:44;99296.97;;;17.22;83.66
56241;BME280;42155;53.096;23.226;2023-07-29T05:22:45;99302.88;;;17.32;82.79
56241;BME280;42155;53.096;23.226;2023-07-29T05:24:45;99302.06;;;17.31;82.72
56241;BME280;42155;53.096;23.226;2023-07-29T05:26:45;99295.88;;;17.31;82.53
56241;BME280;42155;53.096;23.226;2023-07-29T05:28:46;99307.63;;;17.45;82.30
56241;BME280;42155;53.096;23.226;2023-07-29T05:30:46;99310.13;;;17.46;82.25
56241;BME280;42155;53.096;23.226;2023-07-29T05:32:46;99303.44;;;17.42;81.71
56241;BME280;42155;53.096;23.226;2023-07-29T05:34:47;99294.69;;;17.34;81.72
56241;BME280;42155;53.096;23.226;2023-07-29T05:36:47;99317.06;;;17.41;81.53
56241;BME280;42155;53.096;23.226;2023-07-29T05:38:47;99316.59;;;17.37;81.41
56241;BME280;42155;53.096;23.226;2023-07-29T05:40:48;99311.75;;;17.33;81.83
56241;BME280;42155;53.096;23.226;2023-07-29T05:42:49;99308.72;;;17.36;81.82
56241;BME280;42155;53.096;23.226;2023-07-29T05:44:49;99306.69;;;17.38;81.43
56241;BME280;42155;53.096;23.226;2023-07-29T05:46:49;99309.28;;;17.46;81.48
56241;BME280;42155;53.096;23.226;2023-07-29T05:48:50;99307.16;;;17.41;81.12
56241;BME280;42155;53.096;23.226;2023-07-29T05:50:50;99311.63;;;17.49;80.39
56241;BME280;42155;53.096;23.226;2023-07-29T05:52:50;99304.75;;;17.46;79.95
56241;BME280;42155;53.096;23.226;2023-07-29T05:54:51;99314.38;;;17.55;80.37
56241;BME280;42155;53.096;23.226;2023-07-29T05:56:51;99318.22;;;17.61;80.03
56241;BME280;42155;53.096;23.226;2023-07-29T05:58:51;99331.06;;;17.66;79.94
56241;BME280;42155;53.096;23.226;2023-07-29T06:00:52;99320.78;;;17.69;79.66
56241;BME280;42155;53.096;23.226;2023-07-29T06:02:52;99315.22;;;17.56;79.16
56241;BME280;42155;53.096;23.226;2023-07-29T06:04:52;99321.25;;;17.58;79.47
56241;BME280;42155;53.096;23.226;2023-07-29T06:06:53;99336.69;;;17.56;79.67
56241;BME280;42155;53.096;23.226;2023-07-29T06:08:53;99332.34;;;17.55;79.17
56241;BME280;42155;53.096;23.226;2023-07-29T06:10:53;99310.31;;;17.45;79.19
56241;BME280;42155;53.096;23.226;2023-07-29T06:12:54;99330.75;;;17.46;79.07
56241;BME280;42155;53.096;23.226;2023-07-29T06:14:54;99314.09;;;17.36;79.55
56241;BME280;42155;53.096;23.226;2023-07-29T06:16:54;99313.81;;;17.45;79.08
56241;BME280;42155;53.096;23.226;2023-07-29T06:18:56;99322.63;;;17.54;78.42
56241;BME280;42155;53.096;23.226;2023-07-29T06:20:57;99328.47;;;17.58;78.55
56241;BME280;42155;53.096;23.226;2023-07-29T06:22:57;99345.22;;;17.74;78.71
56241;BME280;42155;53.096;23.226;2023-07-29T06:24:57;99326.44;;;17.74;77.89
56241;BME280;42155;53.096;23.226;2023-07-29T06:26:58;99338.22;;;17.73;77.73
56241;BME280;42155;53.096;23.226;2023-07-29T06:28:58;99350.53;;;17.83;78.01
56241;BME280;42155;53.096;23.226;2023-07-29T06:30:58;99327.13;;;17.76;77.80
56241;BME280;42155;53.096;23.226;2023-07-29T06:32:59;99352.47;;;17.89;77.78
56241;BME280;42155;53.096;23.226;2023-07-29T06:34:59;99349.41;;;17.92;77.28
56241;BME280;42155;53.096;23.226;2023-07-29T06:36:59;99354.59;;;17.93;77.25
56241;BME280;42155;53.096;23.226;2023-07-29T06:39:00;99362.00;;;17.91;77.40
56241;BME280;42155;53.096;23.226;2023-07-29T06:41:00;99360.81;;;17.94;77.93
56241;BME280;42155;53.096;23.226;2023-07-29T06:43:00;99358.75;;;17.96;77.85
56241;BME280;42155;53.096;23.226;2023-07-29T06:45:01;99361.63;;;18.09;77.84
56241;BME280;42155;53.096;23.226;2023-07-29T06:47:01;99356.59;;;18.21;77.16
56241;BME280;42155;53.096;23.226;2023-07-29T06:49:01;99358.88;;;18.39;76.70
56241;BME280;42155;53.096;23.226;2023-07-29T06:51:02;99364.81;;;18.49;76.67
56241;BME280;42155;53.096;23.226;2023-07-29T06:53:03;99343.53;;;18.32;76.26
56241;BME280;42155;53.096;23.226;2023-07-29T06:55:03;99347.78;;;18.42;75.59
56241;BME280;42155;53.096;23.226;2023-07-29T06:57:04;99352.63;;;18.31;75.96
56241;BME280;42155;53.096;23.226;2023-07-29T06:59:05;99366.22;;;18.30;76.28
56241;BME280;42155;53.096;23.226;2023-07-29T07:01:05;99369.38;;;18.33;75.67
56241;BME280;42155;53.096;23.226;2023-07-29T07:03:05;99369.91;;;18.44;74.90
56241;BME280;42155;53.096;23.226;2023-07-29T07:05:06;99368.59;;;18.54;74.53
56241;BME280;42155;53.096;23.226;2023-07-29T07:07:06;99352.28;;;18.56;74.35
56241;BME280;42155;53.096;23.226;2023-07-29T07:09:07;99370.53;;;18.97;74.17
56241;BME280;42155;53.096;23.226;2023-07-29T07:11:07;99364.03;;;19.34;74.06
56241;BME280;42155;53.096;23.226;2023-07-29T07:13:07;99364.28;;;19.67;72.44
56241;BME280;42155;53.096;23.226;2023-07-29T07:15:08;99349.81;;;19.68;72.27
56241;BME280;42155;53.096;23.226;2023-07-29T07:17:08;99372.63;;;19.72;72.47
56241;BME280;42155;53.096;23.226;2023-07-29T07:19:08;99372.03;;;19.77;72.17
56241;BME280;42155;53.096;23.226;2023-07-29T07:21:09;99374.31;;;19.80;72.07
56241;BME280;42155;53.096;23.226;2023-07-29T07:23:09;99376.06;;;19.94;71.44
56241;BME280;42155;53.096;23.226;2023-07-29T07:25:10;99366.78;;;19.97;70.35
56241;BME280;42155;53.096;23.226;2023-07-29T07:27:10;99375.34;;;20.14;69.52
56241;BME280;42155;53.096;23.226;2023-07-29T07:29:10;99367.13;;;20.28;69.14
56241;BME280;42155;53.096;23.226;2023-07-29T07:31:11;99377.03;;;20.63;68.50
56241;BME280;42155;53.096;23.226;2023-07-29T07:33:11;99387.69;;;20.91;68.19
56241;BME280;42155;53.096;23.226;2023-07-29T07:35:11;99380.25;;;21.19;67.58
56241;BME280;42155;53.096;23.226;2023-07-29T07:37:11;99382.31;;;21.30;67.63
56241;BME280;42155;53.096;23.226;2023-07-29T07:39:12;99379.41;;;21.25;66.67
56241;BME280;42155;53.096;23.226;2023-07-29T07:41:13;99383.59;;;21.08;67.65
56241;BME280;42155;53.096;23.226;2023-07-29T07:43:13;99380.66;;;21.09;68.18
56241;BME280;42155;53.096;23.226;2023-07-29T07:45:13;99379.06;;;21.42;67.24
56241;BME280;42155;53.096;23.226;2023-07-29T07:47:14;99382.75;;;21.80;67.23
56241;BME280;42155;53.096;23.226;2023-07-29T07:49:14;99380.59;;;22.09;65.87
56241;BME280;42155;53.096;23.226;2023-07-29T07:51:14;99391.22;;;22.04;64.08
56241;BME280;42155;53.096;23.226;2023-07-29T07:53:15;99398.16;;;21.73;65.24
56241;BME280;42155;53.096;23.226;2023-07-29T07:55:15;99381.13;;;21.73;64.98
56241;BME280;42155;53.096;23.226;2023-07-29T07:57:15;99376.09;;;21.96;64.25
56241;BME280;42155;53.096;23.226;2023-07-29T07:59:16;99363.16;;;22.18;63.67
56241;BME280;42155;53.096;23.226;2023-07-29T08:01:16;99365.03;;;22.11;63.94
56241;BME280;42155;53.096;23.226;2023-07-29T08:03:17;99383.31;;;22.22;64.15
56241;BME280;42155;53.096;23.226;2023-07-29T08:05:17;99383.31;;;22.22;63.34
56241;BME280;42155;53.096;23.226;2023-07-29T08:07:18;99381.38;;;22.36;63.17
56241;BME280;42155;53.096;23.226;2023-07-29T08:09:18;99370.50;;;22.56;63.12
56241;BME280;42155;53.096;23.226;2023-07-29T08:11:20;99369.09;;;22.78;61.52
56241;BME280;42155;53.096;23.226;2023-07-29T08:13:21;99382.97;;;23.02;60.53
56241;BME280;42155;53.096;23.226;2023-07-29T08:15:21;99378.50;;;23.14;60.25
56241;BME280;42155;53.096;23.226;2023-07-29T08:17:22;99376.28;;;23.29;60.85
56241;BME280;42155;53.096;23.226;2023-07-29T08:19:23;99359.78;;;23.12;59.32
56241;BME280;42155;53.096;23.226;2023-07-29T08:21:23;99382.09;;;23.08;59.14
56241;BME280;42155;53.096;23.226;2023-07-29T08:23:25;99380.31;;;22.82;60.26
56241;BME280;42155;53.096;23.226;2023-07-29T08:25:25;99369.69;;;22.49;60.93
56241;BME280;42155;53.096;23.226;2023-07-29T08:27:25;99342.16;;;22.14;61.18
56241;BME280;42155;53.096;23.226;2023-07-29T08:29:26;99389.31;;;22.38;61.45
56241;BME280;42155;53.096;23.226;2023-07-29T08:31:26;99370.69;;;22.54;61.86
56241;BME280;42155;53.096;23.226;2023-07-29T08:33:26;99358.81;;;22.62;60.88
56241;BME280;42155;53.096;23.226;2023-07-29T08:35:27;99377.91;;;22.67;60.65
56241;BME280;42155;53.096;23.226;2023-07-29T08:37:27;99386.09;;;22.60;60.43
56241;BME280;42155;53.096;23.226;2023-07-29T08:39:28;99375.91;;;22.49;60.71
56241;BME280;42155;53.096;23.226;2023-07-29T08:41:32;99383.03;;;22.44;61.54
56241;BME280;42155;53.096;23.226;2023-07-29T08:43:39;99375.50;;;22.52;61.08
56241;BME280;42155;53.096;23.226;2023-07-29T08:45:42;99386.63;;;22.76;60.19
56241;BME280;42155;53.096;23.226;2023-07-29T08:47:44;99377.34;;;22.97;60.00
56241;BME280;42155;53.096;23.226;2023-07-29T08:49:45;99374.66;;;22.97;60.72
56241;BME280;42155;53.096;23.226;2023-07-29T08:51:47;99372.69;;;22.72;60.30
56241;BME280;42155;53.096;23.226;2023-07-29T08:53:47;99368.88;;;22.48;59.98
56241;BME280;42155;53.096;23.226;2023-07-29T08:55:48;99363.03;;;22.45;60.50
56241;BME280;42155;53.096;23.226;2023-07-29T08:57:49;99372.69;;;22.72;60.55
56241;BME280;42155;53.096;23.226;2023-07-29T08:59:49;99381.50;;;22.99;59.22
56241;BME280;42155;53.096;23.226;2023-07-29T09:01:50;99372.97;;;23.27;57.81
56241;BME280;42155;53.096;23.226;2023-07-29T09:03:51;99375.41;;;23.35;58.64
56241;BME280;42155;53.096;23.226;2023-07-29T09:05:52;99365.44;;;23.29;57.94
56241;BME280;42155;53.096;23.226;2023-07-29T09:07:53;99375.19;;;23.12;58.32
56241;BME280;42155;53.096;23.226;2023-07-29T09:09:55;99343.56;;;22.74;58.93
56241;BME280;42155;53.096;23.226;2023-07-29T09:11:55;99382.38;;;22.86;58.90
56241;BME280;42155;53.096;23.226;2023-07-29T09:13:56;99383.09;;;22.69;58.93
56241;BME280;42155;53.096;23.226;2023-07-29T09:15:57;99381.97;;;22.83;58.44
56241;BME280;42155;53.096;23.226;2023-07-29T09:17:58;99380.63;;;23.05;58.36
56241;BME280;42155;53.096;23.226;2023-07-29T09:19:59;99316.22;;;22.82;58.88
56241;BME280;42155;53.096;23.226;2023-07-29T09:21:59;99377.91;;;23.37;56.65
56241;BME280;42155;53.096;23.226;2023-07-29T09:24:03;99351.06;;;23.35;57.54
56241;BME280;42155;53.096;23.226;2023-07-29T09:26:04;99374.00;;;23.58;57.34
56241;BME280;42155;53.096;23.226;2023-07-29T09:28:12;99375.47;;;23.54;56.44
56241;BME280;42155;53.096;23.226;2023-07-29T09:30:16;99385.19;;;23.36;57.57
56241;BME280;42155;53.096;23.226;2023-07-29T09:32:24;99384.25;;;23.24;57.78
56241;BME280;42155;53.096;23.226;2023-07-29T09:34:24;99396.56;;;23.20;57.77
56241;BME280;42155;53.096;23.226;2023-07-29T09:36:26;99385.03;;;23.31;56.61
56241;BME280;42155;53.096;23.226;2023-07-29T09:38:27;99369.13;;;23.42;57.60
56241;BME280;42155;53.096;23.226;2023-07-29T09:40:34;99374.00;;;23.58;57.02
56241;BME280;42155;53.096;23.226;2023-07-29T09:42:34;99368.41;;;23.78;56.83
56241;BME280;42155;53.096;23.226;2023-07-29T09:44:37;99371.56;;;23.93;56.81
56241;BME280;42155;53.096;23.226;2023-07-29T09:46:38;99383.47;;;24.10;56.16
56241;BME280;42155;53.096;23.226;2023-07-29T09:48:38;99355.41;;;24.05;55.76
56241;BME280;42155;53.096;23.226;2023-07-29T09:50:38;99371.72;;;24.17;55.15
56241;BME280;42155;53.096;23.226;2023-07-29T09:52:39;99373.03;;;24.14;55.57
56241;BME280;42155;53.096;23.226;2023-07-29T09:54:39;99362.63;;;24.11;55.15
56241;BME280;42155;53.096;23.226;2023-07-29T09:56:41;99375.59;;;24.27;54.22
56241;BME280;42155;53.096;23.226;2023-07-29T09:58:45;99334.16;;;24.02;54.16
56241;BME280;42155;53.096;23.226;2023-07-29T10:00:46;99366.25;;;24.23;53.28
56241;BME280;42155;53.096;23.226;2023-07-29T10:02:47;99376.13;;;24.18;54.69
56241;BME280;42155;53.096;23.226;2023-07-29T10:04:48;99380.53;;;24.12;53.80
56241;BME280;42155;53.096;23.226;2023-07-29T10:06:49;99368.94;;;24.05;54.04
56241;BME280;42155;53.096;23.226;2023-07-29T10:08:50;99375.25;;;23.99;54.48
56241;BME280;42155;53.096;23.226;2023-07-29T10:10:51;99371.66;;;23.86;53.67
56241;BME280;42155;53.096;23.226;2023-07-29T10:12:53;99372.91;;;23.84;54.20
56241;BME280;42155;53.096;23.226;2023-07-29T10:14:55;99381.72;;;23.79;53.57
56241;BME280;42155;53.096;23.226;2023-07-29T10:16:59;99382.19;;;23.76;53.40
56241;BME280;42155;53.096;23.226;2023-07-29T10:19:00;99376.44;;;23.84;53.16
56241;BME280;42155;53.096;23.226;2023-07-29T10:21:02;99390.63;;;24.05;54.52
56241;BME280;42155;53.096;23.226;2023-07-29T10:23:04;99376.63;;;24.26;53.41
56241;BME280;42155;53.096;23.226;2023-07-29T10:25:21;99385.28;;;24.35;52.41
56241;BME280;42155;53.096;23.226;2023-07-29T10:27:24;99370.06;;;24.34;52.65
56241;BME280;42155;53.096;23.226;2023-07-29T10:29:33;99389.28;;;24.32;53.61
56241;BME280;42155;53.096;23.226;2023-07-29T10:31:39;99386.56;;;24.32;52.94
56241;BME280;42155;53.096;23.226;2023-07-29T10:33:40;99386.63;;;24.26;53.32
56241;BME280;42155;53.096;23.226;2023-07-29T10:35:41;99355.25;;;24.00;52.50
56241;BME280;42155;53.096;23.226;2023-07-29T10:37:42;99378.16;;;24.22;53.67
56241;BME280;42155;53.096;23.226;2023-07-29T10:39:53;99382.81;;;24.15;52.43
56241;BME280;42155;53.096;23.226;2023-07-29T10:42:01;99379.81;;;24.05;53.67
56241;BME280;42155;53.096;23.226;2023-07-29T10:44:01;99378.88;;;24.11;54.09